Time;durP1;ratioP1;P1;durP2;ratioP2;P2;SDS_P1;SDS_P2;PMS_P1;PMS_P2;Temp;Humidity;BMP_temperature;BMP_pressure;BME280_temperature;BME280_humidity;BME280_pressure;Samples;Min_cycle;Max_cycle;Signal;HPM_P1;HPM_P2
2021/04/23 00:00:58;;;;;;;19.83;6.03;;;5.30;99.90;;;;;;4942834;28;20035;-76
2021/04/23 00:03:33;;;;;;;31.20;5.97;;;5.30;99.90;;;;;;4953292;28;20035;-77
2021/04/23 00:06:26;;;;;;;14.85;5.53;;;5.30;99.90;;;;;;4957584;28;20427;-75
2021/04/23 00:08:55;;;;;;;16.70;5.68;;;5.30;99.90;;;;;;4972690;28;20036;-75
2021/04/23 00:11:26;;;;;;;15.35;6.22;;;5.30;99.90;;;;;;4956907;28;20400;-76
2021/04/23 00:13:52;;;;;;;13.55;5.35;;;5.30;99.90;;;;;;4946729;28;20020;-75
2021/04/23 00:16:18;;;;;;;16.42;6.55;;;5.30;99.90;;;;;;4952901;28;20442;-77
2021/04/23 00:18:43;;;;;;;18.85;5.60;;;5.30;99.90;;;;;;4946406;29;20035;-76
2021/04/23 00:21:11;;;;;;;18.90;6.25;;;5.30;99.90;;;;;;4925874;29;20038;-75
2021/04/23 00:23:37;;;;;;;18.48;5.93;;;5.30;99.90;;;;;;4940502;28;20510;-76
2021/04/23 00:26:05;;;;;;;19.58;6.25;;;5.30;99.90;;;;;;4948066;28;20027;-76
2021/04/23 00:28:34;;;;;;;17.67;5.78;;;5.30;99.90;;;;;;4955453;28;20015;-75
2021/04/23 00:31:03;;;;;;;12.90;5.82;;;5.30;99.90;;;;;;4958752;29;20087;-76
2021/04/23 00:33:29;;;;;;;14.52;5.50;;;5.30;99.90;;;;;;5018186;28;20091;-76
2021/04/23 00:35:57;;;;;;;13.55;5.80;;;5.30;99.90;;;;;;4957247;28;20061;-76
2021/04/23 00:38:26;;;;;;;23.65;6.38;;;5.30;99.90;;;;;;4974566;28;20030;-74
2021/04/23 00:41:00;;;;;;;18.58;5.35;;;5.30;99.90;;;;;;4966910;28;20039;-76
2021/04/23 00:43:31;;;;;;;12.60;5.85;;;5.30;99.90;;;;;;4954483;28;20039;-75
2021/04/23 00:45:57;;;;;;;15.27;6.30;;;5.30;99.90;;;;;;4952231;28;20069;-76
2021/04/23 00:48:24;;;;;;;21.85;6.85;;;5.20;99.90;;;;;;4955304;28;20024;-76
2021/04/23 00:51:01;;;;;;;20.73;5.93;;;5.20;99.90;;;;;;4953400;28;20046;-75
2021/04/23 00:53:31;;;;;;;19.92;6.70;;;5.30;99.90;;;;;;4963305;28;20494;-76
2021/04/23 00:56:01;;;;;;;17.90;6.25;;;5.30;99.90;;;;;;5035122;28;20019;-75
2021/04/23 00:58:29;;;;;;;20.42;6.90;;;5.30;99.90;;;;;;4963512;28;20089;-77
2021/04/23 01:01:00;;;;;;;15.25;5.55;;;5.30;99.90;;;;;;5021101;28;20049;-76
2021/04/23 01:03:31;;;;;;;22.15;7.38;;;5.30;99.90;;;;;;4952605;28;20036;-76
2021/04/23 01:05:59;;;;;;;15.90;6.03;;;5.20;99.90;;;;;;4948932;28;20032;-77
2021/04/23 01:08:27;;;;;;;17.73;6.30;;;5.20;99.90;;;;;;4945771;28;20046;-77
2021/04/23 01:10:59;;;;;;;18.88;6.00;;;5.20;99.90;;;;;;4957764;28;20366;-76
2021/04/23 01:13:30;;;;;;;20.80;6.00;;;5.20;99.90;;;;;;4967011;28;20027;-75
2021/04/23 01:15:58;;;;;;;19.35;6.85;;;5.20;99.90;;;;;;4955194;28;20058;-75
2021/04/23 01:18:24;;;;;;;14.48;6.82;;;5.20;99.90;;;;;;4953197;28;20035;-75
2021/04/23 01:21:01;;;;;;;32.03;8.75;;;5.20;99.90;;;;;;4955881;28;20054;-76
2021/04/23 01:23:26;;;;;;;19.52;7.95;;;5.20;99.90;;;;;;4945098;28;20035;-77
2021/04/23 01:25:52;;;;;;;16.75;7.05;;;5.10;99.90;;;;;;4960004;28;20031;-76
2021/04/23 01:28:17;;;;;;;20.88;7.32;;;5.10;99.90;;;;;;4953623;28;20075;-76
2021/04/23 01:30:43;;;;;;;19.67;8.45;;;5.10;99.90;;;;;;4940248;28;20016;-76
2021/04/23 01:33:09;;;;;;;22.60;8.45;;;5.10;99.90;;;;;;4953790;28;20027;-77
2021/04/23 01:35:34;;;;;;;25.08;9.30;;;5.20;99.90;;;;;;4950726;28;20523;-75
2021/04/23 01:38:00;;;;;;;17.45;8.07;;;5.10;99.90;;;;;;4947304;28;20036;-77
2021/04/23 01:40:27;;;;;;;29.58;8.82;;;5.10;99.90;;;;;;4940403;28;20070;-78
2021/04/23 01:42:53;;;;;;;22.55;9.35;;;5.10;99.90;;;;;;4967988;28;20035;-77
2021/04/23 01:45:21;;;;;;;18.77;9.00;;;5.10;99.90;;;;;;4965614;28;20387;-76
2021/04/23 01:47:47;;;;;;;20.55;8.13;;;5.10;99.90;;;;;;4940828;28;20090;-77
2021/04/23 01:50:18;;;;;;;20.13;8.15;;;5.10;99.90;;;;;;4946761;28;20074;-75
2021/04/23 01:52:44;;;;;;;20.85;8.50;;;5.00;99.90;;;;;;4942966;28;20031;-76
2021/04/23 01:55:12;;;;;;;17.65;8.00;;;5.10;99.90;;;;;;4958469;28;20031;-76
2021/04/23 01:57:37;;;;;;;18.15;7.30;;;5.00;99.90;;;;;;4956150;28;20090;-76
2021/04/23 02:00:20;;;;;;;20.27;7.95;;;5.00;99.90;;;;;;4955910;28;20043;-76
2021/04/23 02:02:47;;;;;;;30.13;8.05;;;5.00;99.90;;;;;;5016227;28;20043;-76
2021/04/23 02:05:13;;;;;;;20.85;8.70;;;5.00;99.90;;;;;;4959305;28;20039;-77
2021/04/23 02:07:39;;;;;;;19.73;7.75;;;5.00;99.90;;;;;;4955063;28;20054;-77
2021/04/23 02:10:10;;;;;;;22.98;8.18;;;5.00;99.90;;;;;;4939229;28;20031;-76
2021/04/23 02:12:37;;;;;;;20.67;8.02;;;5.00;99.90;;;;;;4947542;28;20058;-76
2021/04/23 02:15:05;;;;;;;18.55;7.80;;;5.00;99.90;;;;;;4955093;28;20027;-76
2021/04/23 02:17:31;;;;;;;26.85;7.68;;;5.00;99.90;;;;;;4953898;29;20031;-75
2021/04/23 02:19:57;;;;;;;17.90;7.60;;;5.00;99.90;;;;;;4953025;29;20039;-75
2021/04/23 02:22:22;;;;;;;21.80;7.68;;;4.90;99.90;;;;;;4950362;28;20032;-75
2021/04/23 02:24:48;;;;;;;24.70;7.85;;;4.80;99.90;;;;;;4941412;28;20040;-76
2021/04/23 02:27:14;;;;;;;25.17;8.43;;;4.80;99.90;;;;;;4938587;28;20027;-75
2021/04/23 02:29:39;;;;;;;17.40;6.90;;;4.80;99.90;;;;;;4945471;28;20483;-76
2021/04/23 02:32:05;;;;;;;14.95;6.45;;;4.80;99.90;;;;;;4966725;28;20070;-77
2021/04/23 02:34:31;;;;;;;15.70;7.20;;;4.80;99.90;;;;;;4946744;28;20036;-74
2021/04/23 02:36:56;;;;;;;22.27;7.28;;;4.80;99.90;;;;;;5015817;28;20059;-76
2021/04/23 02:39:22;;;;;;;15.85;7.57;;;4.80;99.90;;;;;;4941749;28;20028;-76
2021/04/23 02:41:51;;;;;;;18.98;8.10;;;4.80;99.90;;;;;;4949484;28;20034;-75
2021/04/23 02:44:18;;;;;;;23.38;7.25;;;4.70;99.90;;;;;;4962035;28;20552;-76
2021/04/23 02:46:44;;;;;;;24.25;7.57;;;4.70;99.90;;;;;;5001862;28;20039;-75
2021/04/23 02:49:10;;;;;;;17.98;6.40;;;4.70;99.90;;;;;;4966537;28;20027;-76
2021/04/23 02:51:42;;;;;;;21.67;7.68;;;4.70;99.90;;;;;;4949539;28;20028;-76
2021/04/23 02:54:08;;;;;;;19.63;6.43;;;4.70;99.90;;;;;;4946384;28;20042;-76
2021/04/23 02:56:34;;;;;;;29.25;7.90;;;4.70;99.90;;;;;;4948872;28;20043;-76
2021/04/23 02:59:03;;;;;;;15.82;7.40;;;4.60;99.90;;;;;;4991625;28;20029;-77
2021/04/23 03:01:37;;;;;;;14.73;7.50;;;4.70;99.90;;;;;;4946664;28;20519;-76
2021/04/23 03:04:04;;;;;;;16.90;7.88;;;4.60;99.90;;;;;;5004780;28;20031;-74
2021/04/23 03:06:30;;;;;;;20.95;7.22;;;4.60;99.90;;;;;;4961514;28;20042;-76
2021/04/23 03:08:56;;;;;;;20.27;7.78;;;4.60;99.90;;;;;;4995774;28;20017;-76
2021/04/23 03:11:23;;;;;;;20.30;8.15;;;4.70;99.90;;;;;;4997487;28;20036;-75
2021/04/23 03:13:52;;;;;;;19.95;8.20;;;4.70;99.90;;;;;;5004696;28;20411;-77
2021/04/23 03:16:18;;;;;;;23.92;9.80;;;4.80;99.90;;;;;;4955622;29;20015;-74
2021/04/23 03:18:45;;;;;;;24.60;8.18;;;4.80;99.90;;;;;;4964061;28;20028;-76
2021/04/23 03:21:12;;;;;;;20.92;8.70;;;4.80;99.90;;;;;;4971114;28;20039;-76
2021/04/23 03:23:40;;;;;;;31.95;8.02;;;4.90;99.90;;;;;;4965813;28;20039;-75
2021/04/23 03:26:08;;;;;;;22.02;7.90;;;4.90;99.90;;;;;;4971388;28;20027;-77
2021/04/23 03:28:37;;;;;;;25.73;9.43;;;5.00;99.90;;;;;;4953557;28;20038;-78
2021/04/23 03:31:05;;;;;;;26.25;8.18;;;4.90;99.90;;;;;;4968840;28;20032;-77
2021/04/23 03:33:31;;;;;;;26.30;8.23;;;4.80;99.90;;;;;;5011311;28;20036;-75
2021/04/23 03:35:59;;;;;;;32.22;9.63;;;4.80;99.90;;;;;;4953439;28;20008;-76
2021/04/23 03:38:29;;;;;;;27.33;8.15;;;4.70;99.90;;;;;;4966291;29;20066;-76
2021/04/23 03:40:55;;;;;;;27.08;8.55;;;4.80;99.90;;;;;;4969094;28;20015;-76
2021/04/23 03:43:21;;;;;;;24.48;9.07;;;4.70;99.90;;;;;;4951865;28;20020;-76
2021/04/23 03:45:48;;;;;;;20.95;7.80;;;4.60;99.90;;;;;;4955361;28;20530;-77
2021/04/23 03:48:14;;;;;;;21.75;8.90;;;4.60;99.90;;;;;;4986774;28;20044;-76
2021/04/23 03:50:40;;;;;;;23.40;8.80;;;4.50;99.90;;;;;;4993650;28;20019;-76
2021/04/23 03:53:09;;;;;;;22.83;9.40;;;4.60;99.90;;;;;;5020523;28;20028;-76
2021/04/23 03:55:39;;;;;;;19.55;8.57;;;4.60;99.90;;;;;;4929936;28;20024;-77
2021/04/23 03:58:06;;;;;;;31.92;9.05;;;4.50;99.90;;;;;;4961208;28;20054;-76
2021/04/23 04:00:47;;;;;;;20.48;8.70;;;4.50;99.90;;;;;;4972463;28;20110;-75
2021/04/23 04:03:13;;;;;;;24.92;8.73;;;4.60;99.90;;;;;;4955998;28;20106;-74
2021/04/23 04:05:40;;;;;;;16.85;7.93;;;4.60;99.90;;;;;;4980538;28;20383;-76
2021/04/23 04:08:06;;;;;;;28.77;8.52;;;4.60;99.90;;;;;;4958027;28;20065;-75
2021/04/23 04:10:32;;;;;;;26.42;8.38;;;4.60;99.90;;;;;;4964019;28;20083;-77
2021/04/23 04:12:58;;;;;;;30.73;9.68;;;4.60;99.90;;;;;;4977501;28;20019;-75
2021/04/23 04:15:26;;;;;;;28.75;8.55;;;4.60;99.90;;;;;;4977639;28;20050;-75
2021/04/23 04:17:51;;;;;;;32.90;10.27;;;4.60;99.90;;;;;;4982976;28;20024;-75
2021/04/23 04:20:18;;;;;;;24.85;8.68;;;4.60;99.90;;;;;;4952167;28;20102;-76
2021/04/23 04:22:44;;;;;;;38.67;10.35;;;4.50;99.90;;;;;;4989069;28;20118;-76
2021/04/23 04:25:14;;;;;;;26.92;9.85;;;4.50;99.90;;;;;;4947245;28;20019;-74
2021/04/23 04:27:41;;;;;;;25.73;10.05;;;4.50;99.90;;;;;;5010988;28;20005;-75
2021/04/23 04:30:09;;;;;;;29.45;10.18;;;4.50;99.90;;;;;;4966463;28;20031;-75
2021/04/23 04:32:38;;;;;;;40.67;10.93;;;4.40;99.90;;;;;;5004116;28;20032;-75
2021/04/23 04:35:06;;;;;;;30.05;11.00;;;4.50;99.90;;;;;;5037247;28;20017;-75
2021/04/23 04:37:32;;;;;;;38.67;10.68;;;4.50;99.90;;;;;;4972111;28;20256;-75
2021/04/23 04:39:58;;;;;;;36.65;11.77;;;4.40;99.90;;;;;;4966544;28;20031;-74
2021/04/23 04:42:25;;;;;;;38.55;10.20;;;4.40;99.90;;;;;;4987787;28;20079;-75
2021/04/23 04:44:51;;;;;;;32.05;10.15;;;4.40;99.90;;;;;;4972630;28;20043;-75
2021/04/23 04:47:18;;;;;;;32.45;9.80;;;4.40;99.90;;;;;;4975032;28;20053;-74
2021/04/23 04:49:46;;;;;;;26.05;9.77;;;4.40;99.90;;;;;;4973622;28;20023;-75
2021/04/23 04:52:16;;;;;;;30.08;9.48;;;4.40;99.90;;;;;;4967591;28;20116;-76
2021/04/23 04:54:41;;;;;;;28.48;8.40;;;4.40;99.90;;;;;;4961934;28;20031;-76
2021/04/23 04:57:07;;;;;;;28.15;8.90;;;4.50;99.90;;;;;;4959914;28;20110;-76
2021/04/23 04:59:33;;;;;;;31.80;9.60;;;4.50;99.90;;;;;;4946305;28;20039;-77
2021/04/23 05:01:58;;;;;;;28.80;9.57;;;4.50;99.90;;;;;;4982098;28;20065;-76
2021/04/23 05:04:24;;;;;;;25.42;8.77;;;4.50;99.90;;;;;;4956711;28;20074;-76
2021/04/23 05:06:50;;;;;;;22.60;8.82;;;4.50;99.90;;;;;;4948278;28;20035;-76
2021/04/23 05:09:16;;;;;;;34.22;9.55;;;4.50;99.90;;;;;;4956487;28;20030;-77
2021/04/23 05:11:44;;;;;;;33.20;8.55;;;4.50;99.90;;;;;;4949572;28;20023;-76
2021/04/23 05:14:10;;;;;;;25.42;9.40;;;4.60;99.90;;;;;;4951846;28;20019;-76
2021/04/23 05:16:35;;;;;;;25.95;9.38;;;4.50;99.90;;;;;;4951394;28;20634;-77
2021/04/23 05:19:01;;;;;;;18.48;7.65;;;4.60;99.90;;;;;;4942083;28;20032;-76
2021/04/23 05:21:29;;;;;;;26.85;9.20;;;4.60;99.90;;;;;;4942347;28;20031;-75
2021/04/23 05:23:55;;;;;;;22.63;8.73;;;4.70;99.90;;;;;;4945371;29;20058;-75
2021/04/23 05:26:20;;;;;;;21.58;7.43;;;4.70;99.90;;;;;;4941426;28;20035;-76
2021/04/23 05:28:46;;;;;;;24.38;8.18;;;4.80;99.90;;;;;;4944458;28;20069;-74
2021/04/23 05:31:12;;;;;;;20.85;8.57;;;4.80;99.90;;;;;;4946698;28;20098;-75
2021/04/23 05:33:38;;;;;;;24.00;8.10;;;4.80;99.90;;;;;;4940053;28;20106;-74
2021/04/23 05:36:04;;;;;;;36.38;8.70;;;4.90;99.90;;;;;;4948551;28;20031;-76
2021/04/23 05:38:29;;;;;;;27.00;7.53;;;4.90;99.90;;;;;;4947567;28;20750;-76
2021/04/23 05:40:55;;;;;;;20.17;6.63;;;5.00;99.90;;;;;;4942254;28;20125;-75
2021/04/23 05:43:21;;;;;;;19.88;7.53;;;5.10;99.90;;;;;;4941572;29;20114;-76
2021/04/23 05:45:48;;;;;;;16.98;6.22;;;5.10;99.90;;;;;;4939284;28;20509;-76
2021/04/23 05:48:16;;;;;;;25.75;7.47;;;5.10;99.90;;;;;;4955277;28;20025;-76
2021/04/23 05:50:44;;;;;;;16.55;5.97;;;5.20;99.90;;;;;;4944753;28;20028;-75
2021/04/23 05:53:10;;;;;;;25.55;5.95;;;5.30;99.90;;;;;;4963540;28;20020;-75
2021/04/23 05:55:35;;;;;;;23.60;6.90;;;5.40;99.90;;;;;;4947843;28;20055;-75
2021/04/23 05:58:03;;;;;;;15.25;5.75;;;5.40;99.90;;;;;;4959086;28;20051;-79
2021/04/23 06:00:31;;;;;;;16.90;6.00;;;5.40;99.90;;;;;;4959229;28;20030;-76
2021/04/23 06:02:58;;;;;;;16.20;6.93;;;5.50;99.90;;;;;;4942698;28;20035;-75
2021/04/23 06:05:28;;;;;;;17.35;6.22;;;5.60;99.90;;;;;;4950960;28;20066;-76
2021/04/23 06:07:59;;;;;;;24.35;6.38;;;5.60;99.90;;;;;;4948063;28;20027;-75
2021/04/23 06:10:26;;;;;;;13.82;6.63;;;5.70;99.90;;;;;;4945686;28;20035;-77
2021/04/23 06:12:52;;;;;;;17.30;5.90;;;5.80;99.90;;;;;;4952626;28;20501;-74
2021/04/23 06:15:18;;;;;;;18.38;6.05;;;5.80;99.90;;;;;;4980173;28;20672;-76
2021/04/23 06:17:44;;;;;;;14.45;5.15;;;5.90;99.90;;;;;;4996772;28;20081;-76
2021/04/23 06:20:22;;;;;;;23.73;6.63;;;6.00;99.90;;;;;;4950123;28;20046;-76
2021/04/23 06:22:49;;;;;;;16.15;5.60;;;6.10;99.90;;;;;;4953037;28;20145;-76
2021/04/23 06:25:18;;;;;;;25.02;5.45;;;6.20;99.90;;;;;;4955957;28;20429;-75
2021/04/23 06:27:47;;;;;;;18.55;5.38;;;6.40;99.90;;;;;;4993934;28;20023;-77
2021/04/23 06:30:16;;;;;;;19.08;5.72;;;6.30;99.90;;;;;;5001892;28;20054;-76
2021/04/23 06:32:44;;;;;;;20.13;5.45;;;6.30;99.90;;;;;;4945101;28;20031;-77
2021/04/23 06:35:17;;;;;;;15.60;4.90;;;6.30;99.90;;;;;;4954836;28;20513;-77
2021/04/23 06:37:43;;;;;;;;;;;6.20;99.90;;;;;;4999034;28;20039;-76
2021/04/23 06:40:10;;;;;;;22.23;6.07;;;6.10;99.90;;;;;;4944926;28;19930;-77
2021/04/23 06:42:37;;;;;;;20.10;6.00;;;6.10;99.90;;;;;;4936719;28;20039;-77
2021/04/23 06:45:20;;;;;;;25.40;6.60;;;6.20;99.90;;;;;;4995667;28;20033;-77
2021/04/23 06:47:46;;;;;;;16.33;5.75;;;6.20;99.90;;;;;;4965580;28;20027;-76
2021/04/23 06:50:16;;;;;;;20.73;5.53;;;6.30;99.90;;;;;;4954197;28;20395;-76
2021/04/23 06:52:42;;;;;;;19.35;5.53;;;6.30;99.90;;;;;;5017298;28;20040;-76
2021/04/23 06:55:11;;;;;;;23.30;6.32;;;6.30;99.90;;;;;;5028398;28;20021;-75
2021/04/23 06:57:37;;;;;;;16.13;6.28;;;6.40;99.90;;;;;;4982558;28;20077;-77
2021/04/23 07:00:12;;;;;;;19.08;5.90;;;6.40;99.90;;;;;;4959549;28;20004;-77
2021/04/23 07:02:40;;;;;;;17.70;5.75;;;6.50;99.90;;;;;;5023896;28;20025;-77
2021/04/23 07:05:13;;;;;;;20.50;5.78;;;6.60;99.90;;;;;;5048744;28;20100;-76
2021/04/23 07:07:39;;;;;;;10.48;4.22;;;6.80;99.90;;;;;;4990273;28;20437;-76
2021/04/23 07:10:09;;;;;;;17.40;4.38;;;6.80;99.90;;;;;;5017361;28;20049;-76
2021/04/23 07:12:35;;;;;;;14.07;4.03;;;6.80;99.90;;;;;;4953054;28;20054;-77
2021/04/23 07:15:03;;;;;;;18.60;4.45;;;6.80;99.90;;;;;;4964451;28;20273;-77
2021/04/23 07:17:34;;;;;;;11.45;3.42;;;7.00;99.90;;;;;;5005118;28;20100;-78
2021/04/23 07:20:02;;;;;;;14.15;3.67;;;7.10;99.90;;;;;;4960571;28;20039;-78
2021/04/23 07:22:27;;;;;;;25.10;4.90;;;7.10;99.90;;;;;;5006833;28;20037;-77
2021/04/23 07:24:53;;;;;;;14.63;4.78;;;7.10;99.90;;;;;;5015719;28;20029;-76
2021/04/23 07:27:19;;;;;;;21.08;5.38;;;7.20;99.90;;;;;;5001835;28;20011;-77
2021/04/23 07:29:46;;;;;;;19.38;4.85;;;7.10;99.90;;;;;;5001807;28;20029;-75
2021/04/23 07:32:12;;;;;;;14.80;4.85;;;7.30;99.90;;;;;;4956722;28;20016;-77
2021/04/23 07:34:38;;;;;;;18.95;5.07;;;7.40;99.90;;;;;;4955052;29;20035;-77
2021/04/23 07:37:03;;;;;;;17.55;5.53;;;7.50;99.90;;;;;;5026040;28;20080;-78
2021/04/23 07:39:29;;;;;;;14.23;4.65;;;7.80;99.90;;;;;;4947581;29;20494;-76
2021/04/23 07:41:55;;;;;;;17.27;5.35;;;7.80;99.90;;;;;;4940680;28;20112;-77
2021/04/23 07:44:22;;;;;;;17.02;4.97;;;7.90;99.90;;;;;;4965082;28;20076;-76
2021/04/23 07:46:49;;;;;;;22.42;5.80;;;8.00;99.90;;;;;;4958595;28;20182;-77
2021/04/23 07:49:15;;;;;;;20.17;5.40;;;7.50;99.90;;;;;;4959808;28;20039;-76
2021/04/23 07:51:41;;;;;;;14.40;4.65;;;7.50;99.90;;;;;;4947482;28;20016;-77
2021/04/23 07:54:10;;;;;;;18.95;4.78;;;7.50;99.90;;;;;;5043995;28;20376;-75
2021/04/23 07:56:38;;;;;;;15.82;4.63;;;7.50;99.90;;;;;;4958393;28;20521;-77
2021/04/23 07:59:04;;;;;;;17.85;5.13;;;7.70;99.90;;;;;;5019088;28;20028;-77
2021/04/23 08:01:32;;;;;;;14.90;4.75;;;7.90;99.90;;;;;;5023953;28;20534;-79
2021/04/23 08:03:58;;;;;;;13.18;5.00;;;7.90;99.90;;;;;;4957951;28;20035;-78
2021/04/23 08:06:29;;;;;;;11.38;5.03;;;7.70;99.90;;;;;;5022240;28;20055;-80
2021/04/23 08:08:54;;;;;;;15.75;4.10;;;8.00;99.90;;;;;;4959222;28;20395;-77
2021/04/23 08:11:20;;;;;;;11.85;3.58;;;8.00;99.90;;;;;;4960796;28;20023;-77
2021/04/23 08:13:46;;;;;;;9.75;3.05;;;8.20;99.90;;;;;;4957678;28;20045;-77
2021/04/23 08:16:13;;;;;;;11.10;4.30;;;8.40;99.90;;;;;;4960016;28;20020;-77
2021/04/23 08:18:40;;;;;;;20.65;5.60;;;8.20;99.90;;;;;;4989987;28;20021;-77
2021/04/23 08:21:07;;;;;;;14.43;4.15;;;8.20;99.90;;;;;;5069351;28;20021;-76
2021/04/23 08:23:34;;;;;;;15.18;4.07;;;8.10;99.90;;;;;;5016373;28;20102;-77
2021/04/23 08:26:02;;;;;;;14.45;4.18;;;8.20;99.90;;;;;;4944821;28;20036;-78
2021/04/23 08:28:28;;;;;;;11.85;4.05;;;8.20;99.90;;;;;;4974435;28;20019;-78
2021/04/23 08:30:54;;;;;;;12.68;3.83;;;8.30;99.90;;;;;;4967254;28;20017;-77
2021/04/23 08:33:20;;;;;;;16.33;4.82;;;8.70;99.90;;;;;;4963528;28;20050;-75
2021/04/23 08:35:46;;;;;;;12.07;4.32;;;9.00;99.90;;;;;;4964613;28;20039;-76
2021/04/23 08:38:12;;;;;;;9.35;3.60;;;9.20;99.90;;;;;;4964049;28;20018;-78
2021/04/23 08:40:44;;;;;;;17.70;4.10;;;8.90;99.90;;;;;;4972034;28;20020;-77
2021/04/23 08:43:09;;;;;;;12.57;3.78;;;9.30;99.90;;;;;;4950407;28;20027;-77
2021/04/23 08:45:43;;;;;;;23.35;4.53;;;9.40;99.90;;;;;;4961410;28;20094;-79
2021/04/23 08:48:10;;;;;;;15.45;3.17;;;9.50;99.90;;;;;;4962008;28;20012;-79
2021/04/23 08:50:38;;;;;;;13.55;4.40;;;9.90;99.90;;;;;;4972099;28;20046;-79
2021/04/23 08:53:09;;;;;;;11.52;3.97;;;9.50;99.90;;;;;;4988000;28;20014;-80
2021/04/23 08:55:39;;;;;;;13.55;3.80;;;9.70;99.90;;;;;;4966559;28;20091;-78
2021/04/23 08:58:08;;;;;;;14.25;4.05;;;9.80;99.90;;;;;;4968447;28;20480;-77
2021/04/23 09:00:34;;;;;;;12.65;3.80;;;10.10;99.90;;;;;;4956693;28;20015;-77
2021/04/23 09:02:59;;;;;;;21.02;4.80;;;9.60;99.90;;;;;;4950435;28;20142;-76
2021/04/23 09:05:25;;;;;;;15.32;4.13;;;9.90;99.90;;;;;;4950916;28;20035;-79
2021/04/23 09:08:08;;;;;;;16.50;4.55;;;9.80;99.90;;;;;;4951903;29;20030;-77
2021/04/23 09:10:37;;;;;;;18.23;4.63;;;9.60;99.90;;;;;;4944200;28;20105;-78
2021/04/23 09:13:07;;;;;;;15.13;4.35;;;9.70;99.90;;;;;;4951100;28;20091;-79
2021/04/23 09:15:33;;;;;;;17.85;4.20;;;9.90;99.90;;;;;;4976348;28;20025;-79
2021/04/23 09:18:11;;;;;;;15.88;5.47;;;9.90;99.90;;;;;;4949449;28;20049;-79
2021/04/23 09:20:39;;;;;;;15.60;4.63;;;9.90;99.90;;;;;;4952363;28;20031;-75
2021/04/23 09:23:14;;;;;;;13.93;4.82;;;10.10;99.90;;;;;;4948793;28;20031;-78
2021/04/23 09:25:54;;;;;;;14.73;4.38;;;10.20;99.90;;;;;;4950962;28;20023;-79
2021/04/23 09:28:40;;;;;;;13.70;4.35;;;10.60;99.90;;;;;;4949378;28;20019;-80
2021/04/23 09:31:24;;;;;;;13.85;4.70;;;10.60;99.90;;;;;;4955263;28;20598;-79
2021/04/23 09:33:52;;;;;;;12.77;4.55;;;10.40;99.90;;;;;;4946565;28;20024;-77
2021/04/23 09:36:36;;;;;;;23.98;5.18;;;10.50;99.90;;;;;;4955507;28;20048;-78
2021/04/23 09:39:13;;;;;;;18.48;5.30;;;10.70;99.90;;;;;;4927790;28;20160;-76
2021/04/23 09:42:00;;;;;;;15.02;6.05;;;10.40;99.90;;;;;;4949902;28;20123;-75
2021/04/23 09:44:37;;;;;;;8.45;4.35;;;10.50;99.90;;;;;;4958413;28;20601;-77
2021/04/23 09:47:14;;;;;;;10.95;5.45;;;10.40;99.90;;;;;;4950503;28;20028;-78
2021/04/23 09:49:44;;;;;;;15.98;5.57;;;10.50;99.90;;;;;;4949436;28;20035;-78
2021/04/23 09:52:14;;;;;;;17.80;4.78;;;10.70;99.90;;;;;;4956720;29;20015;-78
2021/04/23 09:54:47;;;;;;;16.35;5.63;;;10.90;99.90;;;;;;4949044;29;20019;-77
2021/04/23 09:57:22;;;;;;;12.93;4.95;;;11.00;99.90;;;;;;4946965;29;20045;-77
2021/04/23 09:59:55;;;;;;;16.85;4.97;;;11.10;99.90;;;;;;4948379;28;20024;-77
2021/04/23 10:02:23;;;;;;;12.32;4.45;;;10.80;99.90;;;;;;4958848;28;20028;-77
2021/04/23 10:04:53;;;;;;;12.45;5.20;;;10.70;99.90;;;;;;4948462;28;20011;-76
2021/04/23 10:07:23;;;;;;;11.52;5.38;;;10.70;99.90;;;;;;4980702;28;19997;-77
2021/04/23 10:10:12;;;;;;;14.00;5.00;;;10.50;99.90;;;;;;4951781;28;20024;-77
2021/04/23 10:12:44;;;;;;;10.57;3.85;;;11.00;99.90;;;;;;4960259;28;20023;-78
2021/04/23 10:15:13;;;;;;;;;;;11.30;99.90;;;;;;4982830;28;20027;-76
2021/04/23 10:17:40;;;;;;;12.25;4.53;;;11.80;99.90;;;;;;4947512;28;19937;-78
2021/04/23 10:20:08;;;;;;;9.27;4.32;;;11.90;99.90;;;;;;4960136;28;20023;-79
2021/04/23 10:22:34;;;;;;;10.15;4.47;;;11.30;99.90;;;;;;4977505;28;20114;-78
2021/04/23 10:25:01;;;;;;;18.83;4.85;;;11.30;99.90;;;;;;4959181;28;20024;-78
2021/04/23 10:27:30;;;;;;;15.50;4.47;;;11.30;99.90;;;;;;4954014;28;20038;-79
2021/04/23 10:29:56;;;;;;;10.88;3.90;;;10.90;99.90;;;;;;4954641;28;20058;-78
2021/04/23 10:32:23;;;;;;;10.85;3.92;;;11.10;99.90;;;;;;4949775;28;20027;-77
2021/04/23 10:34:49;;;;;;;14.13;4.10;;;11.20;99.90;;;;;;4958206;28;20031;-75
2021/04/23 10:37:16;;;;;;;11.02;4.47;;;11.10;99.90;;;;;;4956410;28;20031;-75
2021/04/23 10:39:46;;;;;;;12.30;4.68;;;11.00;99.90;;;;;;4948387;29;20046;-79
2021/04/23 10:42:39;;;;;;;15.95;4.30;;;11.20;99.90;;;;;;4948651;28;20054;-76
2021/04/23 10:45:17;;;;;;;10.95;4.00;;;11.60;99.90;;;;;;4950518;28;20038;-79
2021/04/23 10:47:44;;;;;;;12.55;4.60;;;11.90;99.90;;;;;;4936123;28;20020;-78
2021/04/23 10:50:17;;;;;;;15.18;4.75;;;12.20;99.90;;;;;;4976041;28;661001;-78
2021/04/23 10:53:09;;;;;;;20.75;5.28;;;11.50;99.90;;;;;;5035427;28;20021;-75
2021/04/23 10:55:47;;;;;;;17.98;4.90;;;11.50;99.90;;;;;;4961546;28;20118;-80
2021/04/23 10:58:23;;;;;;;14.32;4.60;;;11.50;99.90;;;;;;4951198;28;20024;-77
2021/04/23 11:00:49;;;;;;;17.38;3.55;;;12.10;99.90;;;;;;4951385;28;20042;-74
2021/04/23 11:03:27;;;;;;;16.50;4.35;;;12.50;98.50;;;;;;4952098;28;20028;-77
2021/04/23 11:06:01;;;;;;;10.50;3.72;;;12.10;98.90;;;;;;4950584;28;20024;-79
2021/04/23 11:08:29;;;;;;;15.15;4.53;;;12.10;99.40;;;;;;4946897;28;20024;-78
2021/04/23 11:11:01;;;;;;;13.68;4.68;;;12.30;98.60;;;;;;4952940;29;20020;-78
2021/04/23 11:13:36;;;;;;;10.27;4.18;;;11.90;99.90;;;;;;4955887;28;20028;-78
2021/04/23 11:16:21;;;;;;;16.60;4.00;;;12.30;99.20;;;;;;4955818;28;20027;-79
2021/04/23 11:18:58;;;;;;;16.73;4.97;;;12.70;98.10;;;;;;5003398;28;20111;-76
2021/04/23 11:24:12;;;;;;;12.23;3.30;;;12.50;98.20;;;;;;4973587;28;20055;-79
2021/04/23 11:26:53;;;;;;;14.70;4.68;;;12.80;97.90;;;;;;4958308;28;20023;-78
2021/04/23 11:29:19;;;;;;;11.55;4.13;;;12.80;96.80;;;;;;4957700;28;20027;-77
2021/04/23 11:32:03;;;;;;;10.63;3.90;;;12.50;98.10;;;;;;4955860;28;20092;-76
2021/04/23 11:34:31;;;;;;;15.35;5.28;;;12.50;98.40;;;;;;4958552;28;20205;-77
2021/04/23 11:37:03;;;;;;;9.07;3.70;;;12.50;98.30;;;;;;4966651;28;20038;-78
2021/04/23 11:39:31;;;;;;;16.75;4.68;;;12.90;98.30;;;;;;4950964;28;20016;-80
2021/04/23 11:42:09;;;;;;;14.52;4.97;;;12.80;98.40;;;;;;4950948;28;20032;-77
2021/04/23 11:45:06;;;;;;;11.63;5.10;;;13.00;97.30;;;;;;4962673;28;20083;-78
2021/04/23 11:47:43;;;;;;;11.52;5.38;;;12.80;96.90;;;;;;4962034;28;20046;-78
2021/04/23 11:50:30;;;;;;;11.07;3.55;;;12.30;98.20;;;;;;4955184;29;20043;-79
2021/04/23 11:53:02;;;;;;;14.82;5.20;;;13.00;97.40;;;;;;5027346;28;20045;-79
2021/04/23 11:55:34;;;;;;;18.38;4.80;;;13.00;96.90;;;;;;4960246;28;20091;-78
2021/04/23 11:58:08;;;;;;;9.52;3.80;;;13.20;96.40;;;;;;4983474;28;20039;-79
2021/04/23 12:00:36;;;;;;;11.10;4.53;;;13.70;95.90;;;;;;5029170;28;20029;-77
2021/04/23 12:03:05;;;;;;;10.63;4.20;;;13.80;95.30;;;;;;4982688;28;20062;-81
2021/04/23 12:05:52;;;;;;;13.00;4.60;;;13.30;95.00;;;;;;5029445;28;20023;-80
2021/04/23 12:08:20;;;;;;;10.13;4.25;;;13.50;95.70;;;;;;4959839;28;20108;-83
2021/04/23 12:10:53;;;;;;;14.23;4.45;;;13.90;94.20;;;;;;4951499;29;20030;-81
2021/04/23 12:13:20;;;;;;;17.70;4.82;;;14.20;93.90;;;;;;4949543;28;20024;-78
2021/04/23 12:15:48;;;;;;;10.85;4.47;;;14.10;93.20;;;;;;4949087;28;20019;-81
2021/04/23 12:18:15;;;;;;;12.02;3.78;;;14.20;93.30;;;;;;4951529;28;20024;-80
2021/04/23 12:20:45;;;;;;;10.07;3.72;;;14.20;93.40;;;;;;4984686;28;20116;-77
2021/04/23 12:23:13;;;;;;;18.25;4.40;;;14.40;92.90;;;;;;4958089;28;20054;-78
2021/04/23 12:25:48;;;;;;;10.43;4.03;;;13.70;94.00;;;;;;4959244;28;20020;-79
2021/04/23 12:28:34;;;;;;;20.60;4.78;;;13.80;94.40;;;;;;4962600;28;20047;-76
2021/04/23 12:31:10;;;;;;;14.63;4.53;;;13.70;94.00;;;;;;4957127;28;20020;-77
2021/04/23 12:34:10;;;;;;;12.13;3.90;;;13.30;94.60;;;;;;4956981;28;20031;-81
2021/04/23 12:36:43;;;;;;;12.20;4.28;;;13.60;94.50;;;;;;4974411;28;20037;-78
2021/04/23 12:39:23;;;;;;;18.83;4.28;;;13.70;94.70;;;;;;4983068;28;20352;-78
2021/04/23 12:42:02;;;;;;;15.40;5.57;;;13.70;94.70;;;;;;4964943;28;20030;-77
2021/04/23 12:44:32;;;;;;;14.30;4.78;;;13.80;93.90;;;;;;4971049;28;20073;-80
2021/04/23 12:47:01;;;;;;;15.68;4.70;;;13.80;93.30;;;;;;5008039;28;20071;-78
2021/04/23 12:49:31;;;;;;;10.98;4.30;;;13.60;94.20;;;;;;4968448;28;20023;-79
2021/04/23 12:52:01;;;;;;;11.55;4.40;;;13.80;94.90;;;;;;4982261;28;20039;-78
2021/04/23 12:54:46;;;;;;;11.45;4.03;;;13.40;94.60;;;;;;4962023;28;20011;-77
2021/04/23 12:57:27;;;;;;;10.70;5.15;;;13.50;94.80;;;;;;4971681;28;20464;-81
2021/04/23 13:00:15;;;;;;;9.23;4.00;;;13.50;94.50;;;;;;4972806;28;20105;-79